sensor_id;sensor_type;location;lat;lon;timestamp;temperature;humidity
13707;DHT22;6925;47.816;13.072;2023-08-20T00:01:10;24.00;63.50
13707;DHT22;6925;47.816;13.072;2023-08-20T00:03:40;24.00;63.40
13707;DHT22;6925;47.816;13.072;2023-08-20T00:06:08;24.00;63.60
13707;DHT22;6925;47.816;13.072;2023-08-20T00:08:35;24.00;63.60
13707;DHT22;6925;47.816;13.072;2023-08-20T00:11:02;23.90;63.70
13707;DHT22;6925;47.816;13.072;2023-08-20T00:13:30;23.90;63.70
13707;DHT22;6925;47.816;13.072;2023-08-20T00:15:59;23.90;64.20
13707;DHT22;6925;47.816;13.072;2023-08-20T00:18:26;23.90;64.00
13707;DHT22;6925;47.816;13.072;2023-08-20T00:20:54;23.90;64.10
13707;DHT22;6925;47.816;13.072;2023-08-20T00:23:22;23.90;64.30
13707;DHT22;6925;47.816;13.072;2023-08-20T00:25:49;23.90;64.50
13707;DHT22;6925;47.816;13.072;2023-08-20T00:28:16;23.90;64.20
13707;DHT22;6925;47.816;13.072;2023-08-20T00:30:43;23.90;64.30
13707;DHT22;6925;47.816;13.072;2023-08-20T00:33:12;23.90;64.40
13707;DHT22;6925;47.816;13.072;2023-08-20T00:35:39;23.80;64.20
13707;DHT22;6925;47.816;13.072;2023-08-20T00:38:06;23.80;64.50
13707;DHT22;6925;47.816;13.072;2023-08-20T00:40:34;23.80;64.80
13707;DHT22;6925;47.816;13.072;2023-08-20T00:43:01;23.80;65.00
13707;DHT22;6925;47.816;13.072;2023-08-20T00:45:28;23.80;65.20
13707;DHT22;6925;47.816;13.072;2023-08-20T00:47:55;23.80;64.60
13707;DHT22;6925;47.816;13.072;2023-08-20T00:50:24;23.80;64.60
13707;DHT22;6925;47.816;13.072;2023-08-20T00:52:51;23.80;64.60
13707;DHT22;6925;47.816;13.072;2023-08-20T00:55:19;23.70;64.60
13707;DHT22;6925;47.816;13.072;2023-08-20T00:57:46;23.70;65.00
13707;DHT22;6925;47.816;13.072;2023-08-20T01:00:13;23.70;64.50
13707;DHT22;6925;47.816;13.072;2023-08-20T01:02:41;23.70;64.90
13707;DHT22;6925;47.816;13.072;2023-08-20T01:05:09;23.70;65.20
13707;DHT22;6925;47.816;13.072;2023-08-20T01:07:48;23.70;65.10
13707;DHT22;6925;47.816;13.072;2023-08-20T01:10:18;23.70;64.90
13707;DHT22;6925;47.816;13.072;2023-08-20T01:12:46;23.60;64.90
13707;DHT22;6925;47.816;13.072;2023-08-20T01:15:13;23.60;65.20
13707;DHT22;6925;47.816;13.072;2023-08-20T01:17:41;23.60;65.10
13707;DHT22;6925;47.816;13.072;2023-08-20T01:20:09;23.50;65.40
13707;DHT22;6925;47.816;13.072;2023-08-20T01:22:52;23.60;65.30
13707;DHT22;6925;47.816;13.072;2023-08-20T01:25:32;23.60;65.10
13707;DHT22;6925;47.816;13.072;2023-08-20T01:28:20;23.50;64.70
13707;DHT22;6925;47.816;13.072;2023-08-20T01:30:48;23.50;65.00
13707;DHT22;6925;47.816;13.072;2023-08-20T01:33:16;23.50;64.90
13707;DHT22;6925;47.816;13.072;2023-08-20T01:35:44;23.50;65.50
13707;DHT22;6925;47.816;13.072;2023-08-20T01:38:11;23.50;65.60
13707;DHT22;6925;47.816;13.072;2023-08-20T01:40:38;23.40;65.50
13707;DHT22;6925;47.816;13.072;2023-08-20T01:43:05;23.40;65.20
13707;DHT22;6925;47.816;13.072;2023-08-20T01:45:34;23.30;65.40
13707;DHT22;6925;47.816;13.072;2023-08-20T01:48:01;23.30;65.70
13707;DHT22;6925;47.816;13.072;2023-08-20T01:50:29;23.30;65.70
13707;DHT22;6925;47.816;13.072;2023-08-20T01:52:56;23.30;65.80
13707;DHT22;6925;47.816;13.072;2023-08-20T01:55:23;23.30;66.00
13707;DHT22;6925;47.816;13.072;2023-08-20T01:57:50;23.30;66.10
13707;DHT22;6925;47.816;13.072;2023-08-20T02:00:17;23.30;66.20
13707;DHT22;6925;47.816;13.072;2023-08-20T02:02:46;23.30;66.00
13707;DHT22;6925;47.816;13.072;2023-08-20T02:05:13;23.30;66.20
13707;DHT22;6925;47.816;13.072;2023-08-20T02:07:40;23.30;66.40
13707;DHT22;6925;47.816;13.072;2023-08-20T02:10:08;23.30;66.30
13707;DHT22;6925;47.816;13.072;2023-08-20T02:12:36;23.30;66.80
13707;DHT22;6925;47.816;13.072;2023-08-20T02:15:03;23.30;66.70
13707;DHT22;6925;47.816;13.072;2023-08-20T02:17:30;23.20;66.60
13707;DHT22;6925;47.816;13.072;2023-08-20T02:19:59;23.20;66.70
13707;DHT22;6925;47.816;13.072;2023-08-20T02:22:26;23.10;66.50
13707;DHT22;6925;47.816;13.072;2023-08-20T02:24:55;23.10;66.60
13707;DHT22;6925;47.816;13.072;2023-08-20T02:27:22;23.00;66.80
13707;DHT22;6925;47.816;13.072;2023-08-20T02:29:49;23.00;66.90
13707;DHT22;6925;47.816;13.072;2023-08-20T02:32:17;23.00;67.10
13707;DHT22;6925;47.816;13.072;2023-08-20T02:34:45;23.00;66.40
13707;DHT22;6925;47.816;13.072;2023-08-20T02:37:16;23.00;66.90
13707;DHT22;6925;47.816;13.072;2023-08-20T02:39:43;23.00;66.90
13707;DHT22;6925;47.816;13.072;2023-08-20T02:42:10;23.00;67.00
13707;DHT22;6925;47.816;13.072;2023-08-20T02:44:37;23.00;67.10
13707;DHT22;6925;47.816;13.072;2023-08-20T02:47:05;23.00;67.10
13707;DHT22;6925;47.816;13.072;2023-08-20T02:49:32;23.00;66.90
13707;DHT22;6925;47.816;13.072;2023-08-20T02:51:59;22.90;66.90
13707;DHT22;6925;47.816;13.072;2023-08-20T02:54:27;22.90;67.20
13707;DHT22;6925;47.816;13.072;2023-08-20T02:56:54;22.90;67.20
13707;DHT22;6925;47.816;13.072;2023-08-20T02:59:21;22.90;67.00
13707;DHT22;6925;47.816;13.072;2023-08-20T03:01:49;22.90;67.20
13707;DHT22;6925;47.816;13.072;2023-08-20T03:04:16;22.80;67.00
13707;DHT22;6925;47.816;13.072;2023-08-20T03:06:43;22.80;67.30
13707;DHT22;6925;47.816;13.072;2023-08-20T03:09:10;22.70;67.50
13707;DHT22;6925;47.816;13.072;2023-08-20T03:11:38;22.60;67.50
13707;DHT22;6925;47.816;13.072;2023-08-20T03:14:05;22.60;67.90
13707;DHT22;6925;47.816;13.072;2023-08-20T03:16:32;22.60;68.00
13707;DHT22;6925;47.816;13.072;2023-08-20T03:18:59;22.60;68.10
13707;DHT22;6925;47.816;13.072;2023-08-20T03:21:27;22.60;67.50
13707;DHT22;6925;47.816;13.072;2023-08-20T03:23:54;22.60;67.80
13707;DHT22;6925;47.816;13.072;2023-08-20T03:26:21;22.60;67.70
13707;DHT22;6925;47.816;13.072;2023-08-20T03:28:49;22.50;67.50
13707;DHT22;6925;47.816;13.072;2023-08-20T03:31:17;22.50;67.80
13707;DHT22;6925;47.816;13.072;2023-08-20T03:33:44;22.60;67.60
13707;DHT22;6925;47.816;13.072;2023-08-20T03:36:11;22.50;67.30
13707;DHT22;6925;47.816;13.072;2023-08-20T03:38:38;22.50;67.30
13707;DHT22;6925;47.816;13.072;2023-08-20T03:41:05;22.50;67.50
13707;DHT22;6925;47.816;13.072;2023-08-20T03:43:32;22.50;67.70
13707;DHT22;6925;47.816;13.072;2023-08-20T03:46:01;22.40;67.90
13707;DHT22;6925;47.816;13.072;2023-08-20T03:48:28;22.50;67.50
13707;DHT22;6925;47.816;13.072;2023-08-20T03:50:56;22.40;67.70
13707;DHT22;6925;47.816;13.072;2023-08-20T03:53:23;22.40;67.70
13707;DHT22;6925;47.816;13.072;2023-08-20T03:55:50;22.40;67.40
13707;DHT22;6925;47.816;13.072;2023-08-20T03:58:17;22.40;67.70
13707;DHT22;6925;47.816;13.072;2023-08-20T04:00:44;22.40;67.90
13707;DHT22;6925;47.816;13.072;2023-08-20T04:03:13;22.40;68.10
13707;DHT22;6925;47.816;13.072;2023-08-20T04:05:40;22.40;67.90
13707;DHT22;6925;47.816;13.072;2023-08-20T04:08:07;22.40;68.10
13707;DHT22;6925;47.816;13.072;2023-08-20T04:10:34;22.40;67.80
13707;DHT22;6925;47.816;13.072;2023-08-20T04:13:02;22.30;68.00
13707;DHT22;6925;47.816;13.072;2023-08-20T04:15:29;22.40;68.00
13707;DHT22;6925;47.816;13.072;2023-08-20T04:17:56;22.40;68.10
13707;DHT22;6925;47.816;13.072;2023-08-20T04:20:24;22.40;68.80
13707;DHT22;6925;47.816;13.072;2023-08-20T04:22:52;22.40;68.10
13707;DHT22;6925;47.816;13.072;2023-08-20T04:25:19;22.40;67.70
13707;DHT22;6925;47.816;13.072;2023-08-20T04:27:46;22.30;67.40
13707;DHT22;6925;47.816;13.072;2023-08-20T04:30:13;22.30;67.60
13707;DHT22;6925;47.816;13.072;2023-08-20T04:32:41;22.30;67.90
13707;DHT22;6925;47.816;13.072;2023-08-20T04:35:08;22.40;67.70
13707;DHT22;6925;47.816;13.072;2023-08-20T04:37:37;22.30;67.80
13707;DHT22;6925;47.816;13.072;2023-08-20T04:40:05;22.40;67.90
13707;DHT22;6925;47.816;13.072;2023-08-20T04:42:33;22.40;68.10
13707;DHT22;6925;47.816;13.072;2023-08-20T04:45:00;22.40;67.50
13707;DHT22;6925;47.816;13.072;2023-08-20T04:47:28;22.30;67.90
13707;DHT22;6925;47.816;13.072;2023-08-20T04:49:55;22.40;67.90
13707;DHT22;6925;47.816;13.072;2023-08-20T04:52:22;22.40;67.40
13707;DHT22;6925;47.816;13.072;2023-08-20T04:54:50;22.30;67.00
13707;DHT22;6925;47.816;13.072;2023-08-20T04:57:17;22.30;67.30
13707;DHT22;6925;47.816;13.072;2023-08-20T04:59:44;22.30;67.40
13707;DHT22;6925;47.816;13.072;2023-08-20T05:02:12;22.30;68.40
13707;DHT22;6925;47.816;13.072;2023-08-20T05:04:39;22.30;68.10
13707;DHT22;6925;47.816;13.072;2023-08-20T05:07:06;22.40;68.30
13707;DHT22;6925;47.816;13.072;2023-08-20T05:09:33;22.40;68.40
13707;DHT22;6925;47.816;13.072;2023-08-20T05:12:02;22.40;68.40
13707;DHT22;6925;47.816;13.072;2023-08-20T05:14:29;22.40;68.30
13707;DHT22;6925;47.816;13.072;2023-08-20T05:16:57;22.40;68.50
13707;DHT22;6925;47.816;13.072;2023-08-20T05:19:24;22.40;69.10
13707;DHT22;6925;47.816;13.072;2023-08-20T05:21:51;22.40;69.20
13707;DHT22;6925;47.816;13.072;2023-08-20T05:24:21;22.50;69.60
13707;DHT22;6925;47.816;13.072;2023-08-20T05:27:05;22.50;68.90
13707;DHT22;6925;47.816;13.072;2023-08-20T05:29:33;22.50;67.80
13707;DHT22;6925;47.816;13.072;2023-08-20T05:32:01;22.40;67.40
13707;DHT22;6925;47.816;13.072;2023-08-20T05:34:28;22.40;67.00
13707;DHT22;6925;47.816;13.072;2023-08-20T05:36:55;22.30;67.30
13707;DHT22;6925;47.816;13.072;2023-08-20T05:39:22;22.30;67.30
13707;DHT22;6925;47.816;13.072;2023-08-20T05:41:51;22.30;67.60
13707;DHT22;6925;47.816;13.072;2023-08-20T05:44:20;22.30;67.90
13707;DHT22;6925;47.816;13.072;2023-08-20T05:46:47;22.30;67.00
13707;DHT22;6925;47.816;13.072;2023-08-20T05:49:14;22.30;66.90
13707;DHT22;6925;47.816;13.072;2023-08-20T05:51:42;22.30;67.00
13707;DHT22;6925;47.816;13.072;2023-08-20T05:54:09;22.30;67.70
13707;DHT22;6925;47.816;13.072;2023-08-20T05:56:36;22.30;67.50
13707;DHT22;6925;47.816;13.072;2023-08-20T05:59:04;22.30;67.20
13707;DHT22;6925;47.816;13.072;2023-08-20T06:01:32;22.40;67.50
13707;DHT22;6925;47.816;13.072;2023-08-20T06:03:59;22.40;67.70
13707;DHT22;6925;47.816;13.072;2023-08-20T06:06:27;22.40;67.00
13707;DHT22;6925;47.816;13.072;2023-08-20T06:08:54;22.40;67.30
13707;DHT22;6925;47.816;13.072;2023-08-20T06:11:22;22.50;66.70
13707;DHT22;6925;47.816;13.072;2023-08-20T06:13:49;22.50;67.20
13707;DHT22;6925;47.816;13.072;2023-08-20T06:16:16;22.50;67.70
13707;DHT22;6925;47.816;13.072;2023-08-20T06:18:44;22.60;67.10
13707;DHT22;6925;47.816;13.072;2023-08-20T06:21:11;22.60;66.40
13707;DHT22;6925;47.816;13.072;2023-08-20T06:23:39;22.60;66.90
13707;DHT22;6925;47.816;13.072;2023-08-20T06:26:06;22.70;67.40
13707;DHT22;6925;47.816;13.072;2023-08-20T06:28:33;22.70;67.20
13707;DHT22;6925;47.816;13.072;2023-08-20T06:31:00;22.80;66.90
13707;DHT22;6925;47.816;13.072;2023-08-20T06:33:27;22.80;66.50
13707;DHT22;6925;47.816;13.072;2023-08-20T06:35:56;22.90;66.50
13707;DHT22;6925;47.816;13.072;2023-08-20T06:38:23;22.90;66.60
13707;DHT22;6925;47.816;13.072;2023-08-20T06:40:50;23.00;66.70
13707;DHT22;6925;47.816;13.072;2023-08-20T06:43:17;23.00;67.10
13707;DHT22;6925;47.816;13.072;2023-08-20T06:45:44;23.10;67.20
13707;DHT22;6925;47.816;13.072;2023-08-20T06:48:11;23.10;67.00
13707;DHT22;6925;47.816;13.072;2023-08-20T06:50:40;23.20;66.40
13707;DHT22;6925;47.816;13.072;2023-08-20T06:53:09;23.20;66.30
13707;DHT22;6925;47.816;13.072;2023-08-20T06:55:36;23.30;65.10
13707;DHT22;6925;47.816;13.072;2023-08-20T06:58:03;23.30;65.30
13707;DHT22;6925;47.816;13.072;2023-08-20T07:00:30;23.30;65.10
13707;DHT22;6925;47.816;13.072;2023-08-20T07:02:57;23.40;65.80
13707;DHT22;6925;47.816;13.072;2023-08-20T07:05:24;23.50;66.80
13707;DHT22;6925;47.816;13.072;2023-08-20T07:07:51;23.50;65.20
13707;DHT22;6925;47.816;13.072;2023-08-20T07:10:20;23.50;65.20
13707;DHT22;6925;47.816;13.072;2023-08-20T07:12:47;23.50;65.20
13707;DHT22;6925;47.816;13.072;2023-08-20T07:15:14;23.50;64.90
13707;DHT22;6925;47.816;13.072;2023-08-20T07:17:42;23.60;65.10
13707;DHT22;6925;47.816;13.072;2023-08-20T07:20:09;23.60;64.70
13707;DHT22;6925;47.816;13.072;2023-08-20T07:22:36;23.60;64.80
13707;DHT22;6925;47.816;13.072;2023-08-20T07:25:04;23.70;64.70
13707;DHT22;6925;47.816;13.072;2023-08-20T07:27:32;23.70;64.50
13707;DHT22;6925;47.816;13.072;2023-08-20T07:29:59;23.80;65.70
13707;DHT22;6925;47.816;13.072;2023-08-20T07:32:26;23.80;65.20
13707;DHT22;6925;47.816;13.072;2023-08-20T07:34:54;24.00;64.60
13707;DHT22;6925;47.816;13.072;2023-08-20T07:37:21;24.00;64.30
13707;DHT22;6925;47.816;13.072;2023-08-20T07:39:48;24.10;64.80
13707;DHT22;6925;47.816;13.072;2023-08-20T07:42:15;24.20;65.20
13707;DHT22;6925;47.816;13.072;2023-08-20T07:44:45;24.30;63.70
13707;DHT22;6925;47.816;13.072;2023-08-20T07:47:12;24.30;65.30
13707;DHT22;6925;47.816;13.072;2023-08-20T07:49:39;24.30;62.80
13707;DHT22;6925;47.816;13.072;2023-08-20T07:52:06;24.30;63.30
13707;DHT22;6925;47.816;13.072;2023-08-20T07:54:33;24.30;64.40
13707;DHT22;6925;47.816;13.072;2023-08-20T07:57:00;24.50;64.80
13707;DHT22;6925;47.816;13.072;2023-08-20T07:59:28;24.60;64.30
13707;DHT22;6925;47.816;13.072;2023-08-20T08:01:56;24.70;63.80
13707;DHT22;6925;47.816;13.072;2023-08-20T08:04:23;24.80;62.00
13707;DHT22;6925;47.816;13.072;2023-08-20T08:06:50;24.80;63.30
13707;DHT22;6925;47.816;13.072;2023-08-20T08:09:21;24.90;64.00
13707;DHT22;6925;47.816;13.072;2023-08-20T08:11:49;25.00;64.70
13707;DHT22;6925;47.816;13.072;2023-08-20T08:14:16;25.10;63.00
13707;DHT22;6925;47.816;13.072;2023-08-20T08:16:44;25.10;62.20
13707;DHT22;6925;47.816;13.072;2023-08-20T08:19:13;25.10;62.30
13707;DHT22;6925;47.816;13.072;2023-08-20T08:21:40;25.10;61.60
13707;DHT22;6925;47.816;13.072;2023-08-20T08:24:08;25.10;62.70
13707;DHT22;6925;47.816;13.072;2023-08-20T08:26:35;25.30;62.70
13707;DHT22;6925;47.816;13.072;2023-08-20T08:29:03;25.40;63.30
13707;DHT22;6925;47.816;13.072;2023-08-20T08:31:30;25.50;63.20
13707;DHT22;6925;47.816;13.072;2023-08-20T08:33:57;25.70;63.30
13707;DHT22;6925;47.816;13.072;2023-08-20T08:36:26;25.80;64.20
13707;DHT22;6925;47.816;13.072;2023-08-20T08:38:53;26.00;63.90
13707;DHT22;6925;47.816;13.072;2023-08-20T08:41:22;26.10;63.20
13707;DHT22;6925;47.816;13.072;2023-08-20T08:43:49;26.10;61.10
13707;DHT22;6925;47.816;13.072;2023-08-20T08:46:17;26.20;60.50
13707;DHT22;6925;47.816;13.072;2023-08-20T08:48:46;26.30;60.40
13707;DHT22;6925;47.816;13.072;2023-08-20T08:51:13;26.40;61.60
13707;DHT22;6925;47.816;13.072;2023-08-20T08:53:43;26.60;61.70
13707;DHT22;6925;47.816;13.072;2023-08-20T08:56:10;26.70;61.60
13707;DHT22;6925;47.816;13.072;2023-08-20T08:58:37;26.80;60.30
13707;DHT22;6925;47.816;13.072;2023-08-20T09:01:05;26.90;60.70
13707;DHT22;6925;47.816;13.072;2023-08-20T09:03:32;27.00;59.80
13707;DHT22;6925;47.816;13.072;2023-08-20T09:06:01;27.20;59.50
13707;DHT22;6925;47.816;13.072;2023-08-20T09:08:30;27.40;59.00
13707;DHT22;6925;47.816;13.072;2023-08-20T09:11:00;27.50;59.70
13707;DHT22;6925;47.816;13.072;2023-08-20T09:13:33;27.70;59.70
13707;DHT22;6925;47.816;13.072;2023-08-20T09:16:04;27.80;59.90
13707;DHT22;6925;47.816;13.072;2023-08-20T09:18:32;27.80;59.90
13707;DHT22;6925;47.816;13.072;2023-08-20T09:20:59;27.90;59.30
13707;DHT22;6925;47.816;13.072;2023-08-20T09:23:29;28.00;60.10
13707;DHT22;6925;47.816;13.072;2023-08-20T09:26:00;28.20;60.50
13707;DHT22;6925;47.816;13.072;2023-08-20T09:28:28;28.40;59.60
13707;DHT22;6925;47.816;13.072;2023-08-20T09:30:56;28.60;59.90
13707;DHT22;6925;47.816;13.072;2023-08-20T09:33:23;28.70;59.30
13707;DHT22;6925;47.816;13.072;2023-08-20T09:35:51;28.90;59.10
13707;DHT22;6925;47.816;13.072;2023-08-20T09:38:19;29.00;60.50
13707;DHT22;6925;47.816;13.072;2023-08-20T09:40:49;29.20;60.40
13707;DHT22;6925;47.816;13.072;2023-08-20T09:43:19;29.30;58.60
13707;DHT22;6925;47.816;13.072;2023-08-20T09:45:47;29.40;59.90
13707;DHT22;6925;47.816;13.072;2023-08-20T09:48:18;29.60;61.10
13707;DHT22;6925;47.816;13.072;2023-08-20T09:50:47;29.80;57.60
13707;DHT22;6925;47.816;13.072;2023-08-20T09:53:22;29.90;56.70
13707;DHT22;6925;47.816;13.072;2023-08-20T09:55:53;30.00;56.20
13707;DHT22;6925;47.816;13.072;2023-08-20T09:58:23;30.10;57.70
13707;DHT22;6925;47.816;13.072;2023-08-20T10:00:51;30.40;58.00
13707;DHT22;6925;47.816;13.072;2023-08-20T10:03:19;30.50;58.30
13707;DHT22;6925;47.816;13.072;2023-08-20T10:05:48;30.70;56.80
13707;DHT22;6925;47.816;13.072;2023-08-20T10:08:15;30.70;56.40
13707;DHT22;6925;47.816;13.072;2023-08-20T10:10:44;30.80;57.70
13707;DHT22;6925;47.816;13.072;2023-08-20T10:13:13;30.90;59.90
13707;DHT22;6925;47.816;13.072;2023-08-20T10:15:42;31.10;58.10
13707;DHT22;6925;47.816;13.072;2023-08-20T10:18:10;31.30;58.50
13707;DHT22;6925;47.816;13.072;2023-08-20T10:20:38;31.40;57.10
13707;DHT22;6925;47.816;13.072;2023-08-20T10:23:06;31.60;57.80
13707;DHT22;6925;47.816;13.072;2023-08-20T10:25:41;31.80;56.20
13707;DHT22;6925;47.816;13.072;2023-08-20T10:28:14;32.00;56.80
13707;DHT22;6925;47.816;13.072;2023-08-20T10:31:06;32.10;55.70
13707;DHT22;6925;47.816;13.072;2023-08-20T10:33:34;32.30;54.30
13707;DHT22;6925;47.816;13.072;2023-08-20T10:36:10;32.40;56.70
13707;DHT22;6925;47.816;13.072;2023-08-20T10:38:40;32.50;54.50
13707;DHT22;6925;47.816;13.072;2023-08-20T10:41:08;32.50;54.20
13707;DHT22;6925;47.816;13.072;2023-08-20T10:43:37;32.60;54.90
13707;DHT22;6925;47.816;13.072;2023-08-20T10:46:13;32.80;54.20
13707;DHT22;6925;47.816;13.072;2023-08-20T10:48:42;33.00;53.20
13707;DHT22;6925;47.816;13.072;2023-08-20T10:51:11;33.20;52.70
13707;DHT22;6925;47.816;13.072;2023-08-20T10:53:39;33.30;51.60
13707;DHT22;6925;47.816;13.072;2023-08-20T10:56:11;33.40;51.80
13707;DHT22;6925;47.816;13.072;2023-08-20T10:58:41;33.50;50.90
13707;DHT22;6925;47.816;13.072;2023-08-20T11:01:30;33.50;51.50
13707;DHT22;6925;47.816;13.072;2023-08-20T11:03:57;33.80;51.40
13707;DHT22;6925;47.816;13.072;2023-08-20T11:06:31;34.00;51.90
13707;DHT22;6925;47.816;13.072;2023-08-20T11:08:58;34.20;51.50
13707;DHT22;6925;47.816;13.072;2023-08-20T11:11:26;34.20;50.60
13707;DHT22;6925;47.816;13.072;2023-08-20T11:13:53;34.50;50.10
13707;DHT22;6925;47.816;13.072;2023-08-20T11:16:20;34.40;49.90
13707;DHT22;6925;47.816;13.072;2023-08-20T11:18:48;34.40;49.10
13707;DHT22;6925;47.816;13.072;2023-08-20T11:21:15;34.50;49.30
13707;DHT22;6925;47.816;13.072;2023-08-20T11:23:43;34.70;50.60
13707;DHT22;6925;47.816;13.072;2023-08-20T11:26:10;34.90;50.80
13707;DHT22;6925;47.816;13.072;2023-08-20T11:28:37;35.10;51.50
13707;DHT22;6925;47.816;13.072;2023-08-20T11:31:04;35.20;50.00
13707;DHT22;6925;47.816;13.072;2023-08-20T11:33:32;35.30;50.10
13707;DHT22;6925;47.816;13.072;2023-08-20T11:36:04;35.40;48.60
13707;DHT22;6925;47.816;13.072;2023-08-20T11:38:31;35.40;48.50
13707;DHT22;6925;47.816;13.072;2023-08-20T11:40:58;35.60;48.90
13707;DHT22;6925;47.816;13.072;2023-08-20T11:43:27;35.70;49.00
13707;DHT22;6925;47.816;13.072;2023-08-20T11:45:54;35.80;48.40
13707;DHT22;6925;47.816;13.072;2023-08-20T11:48:23;35.80;47.80
13707;DHT22;6925;47.816;13.072;2023-08-20T11:50:51;35.90;44.70
13707;DHT22;6925;47.816;13.072;2023-08-20T11:53:22;36.00;45.50
13707;DHT22;6925;47.816;13.072;2023-08-20T11:55:50;36.20;46.30
13707;DHT22;6925;47.816;13.072;2023-08-20T11:58:19;36.20;46.20
13707;DHT22;6925;47.816;13.072;2023-08-20T12:00:49;36.30;45.20
13707;DHT22;6925;47.816;13.072;2023-08-20T12:03:18;36.40;46.10
13707;DHT22;6925;47.816;13.072;2023-08-20T12:05:46;36.50;43.90
13707;DHT22;6925;47.816;13.072;2023-08-20T12:08:15;36.50;41.50
13707;DHT22;6925;47.816;13.072;2023-08-20T12:10:45;36.70;43.50
13707;DHT22;6925;47.816;13.072;2023-08-20T12:13:12;36.80;44.10
13707;DHT22;6925;47.816;13.072;2023-08-20T12:15:39;36.90;43.60
13707;DHT22;6925;47.816;13.072;2023-08-20T12:18:06;37.00;43.00
13707;DHT22;6925;47.816;13.072;2023-08-20T12:20:35;37.10;43.90
13707;DHT22;6925;47.816;13.072;2023-08-20T12:23:04;37.30;42.70
13707;DHT22;6925;47.816;13.072;2023-08-20T12:25:32;37.40;42.10
13707;DHT22;6925;47.816;13.072;2023-08-20T12:28:01;37.40;42.60
13707;DHT22;6925;47.816;13.072;2023-08-20T12:30:30;37.60;41.60
13707;DHT22;6925;47.816;13.072;2023-08-20T12:32:57;37.70;41.40
13707;DHT22;6925;47.816;13.072;2023-08-20T12:35:24;37.70;40.20
13707;DHT22;6925;47.816;13.072;2023-08-20T12:37:51;37.70;42.90
13707;DHT22;6925;47.816;13.072;2023-08-20T12:40:18;38.00;39.40
13707;DHT22;6925;47.816;13.072;2023-08-20T12:42:46;38.00;39.80
13707;DHT22;6925;47.816;13.072;2023-08-20T12:45:14;38.00;39.70
13707;DHT22;6925;47.816;13.072;2023-08-20T12:47:42;38.10;40.20
13707;DHT22;6925;47.816;13.072;2023-08-20T12:50:10;38.20;39.60
13707;DHT22;6925;47.816;13.072;2023-08-20T12:52:39;38.20;36.50
13707;DHT22;6925;47.816;13.072;2023-08-20T12:55:09;38.30;39.10
13707;DHT22;6925;47.816;13.072;2023-08-20T12:57:36;38.40;40.80
13707;DHT22;6925;47.816;13.072;2023-08-20T13:00:05;38.50;39.40
13707;DHT22;6925;47.816;13.072;2023-08-20T13:02:39;38.60;41.00
13707;DHT22;6925;47.816;13.072;2023-08-20T13:05:07;38.80;41.20
13707;DHT22;6925;47.816;13.072;2023-08-20T13:07:36;38.90;40.70
13707;DHT22;6925;47.816;13.072;2023-08-20T13:10:05;39.00;40.00
13707;DHT22;6925;47.816;13.072;2023-08-20T13:12:34;38.90;37.40
13707;DHT22;6925;47.816;13.072;2023-08-20T13:15:02;38.90;38.90
13707;DHT22;6925;47.816;13.072;2023-08-20T13:17:31;39.00;38.50
13707;DHT22;6925;47.816;13.072;2023-08-20T13:20:00;39.10;38.60
13707;DHT22;6925;47.816;13.072;2023-08-20T13:22:27;39.10;38.90
13707;DHT22;6925;47.816;13.072;2023-08-20T13:24:54;39.20;38.20
13707;DHT22;6925;47.816;13.072;2023-08-20T13:27:21;39.20;39.00
13707;DHT22;6925;47.816;13.072;2023-08-20T13:29:50;39.30;37.90
13707;DHT22;6925;47.816;13.072;2023-08-20T13:32:17;39.40;38.30
13707;DHT22;6925;47.816;13.072;2023-08-20T13:34:44;39.50;37.60
13707;DHT22;6925;47.816;13.072;2023-08-20T13:37:12;39.60;37.20
13707;DHT22;6925;47.816;13.072;2023-08-20T13:39:39;39.70;37.60
13707;DHT22;6925;47.816;13.072;2023-08-20T13:42:06;39.80;39.70
13707;DHT22;6925;47.816;13.072;2023-08-20T13:44:34;39.90;38.80
13707;DHT22;6925;47.816;13.072;2023-08-20T13:47:01;39.90;38.50
13707;DHT22;6925;47.816;13.072;2023-08-20T13:49:28;39.80;38.10
13707;DHT22;6925;47.816;13.072;2023-08-20T13:51:55;39.70;37.50
13707;DHT22;6925;47.816;13.072;2023-08-20T13:54:23;39.80;37.00
13707;DHT22;6925;47.816;13.072;2023-08-20T13:56:50;39.90;38.80
13707;DHT22;6925;47.816;13.072;2023-08-20T13:59:18;39.90;37.60
13707;DHT22;6925;47.816;13.072;2023-08-20T14:01:45;40.00;36.80
13707;DHT22;6925;47.816;13.072;2023-08-20T14:04:13;40.00;35.20
13707;DHT22;6925;47.816;13.072;2023-08-20T14:06:41;40.00;37.00
13707;DHT22;6925;47.816;13.072;2023-08-20T14:09:08;40.10;38.80
13707;DHT22;6925;47.816;13.072;2023-08-20T14:11:36;40.10;36.70
13707;DHT22;6925;47.816;13.072;2023-08-20T14:14:03;40.10;36.10
13707;DHT22;6925;47.816;13.072;2023-08-20T14:16:31;40.00;36.80
13707;DHT22;6925;47.816;13.072;2023-08-20T14:18:58;40.00;37.60
13707;DHT22;6925;47.816;13.072;2023-08-20T14:21:25;40.00;35.80
13707;DHT22;6925;47.816;13.072;2023-08-20T14:23:52;40.00;36.90
13707;DHT22;6925;47.816;13.072;2023-08-20T14:26:19;40.10;38.50
13707;DHT22;6925;47.816;13.072;2023-08-20T14:28:48;40.10;36.60
13707;DHT22;6925;47.816;13.072;2023-08-20T14:31:15;40.10;37.40
13707;DHT22;6925;47.816;13.072;2023-08-20T14:33:42;40.10;37.80
13707;DHT22;6925;47.816;13.072;2023-08-20T14:36:09;40.10;37.90
13707;DHT22;6925;47.816;13.072;2023-08-20T14:38:36;40.10;36.60
13707;DHT22;6925;47.816;13.072;2023-08-20T14:41:03;40.10;36.40
13707;DHT22;6925;47.816;13.072;2023-08-20T14:43:30;40.00;35.00
13707;DHT22;6925;47.816;13.072;2023-08-20T14:45:59;40.00;35.70
13707;DHT22;6925;47.816;13.072;2023-08-20T14:48:26;39.90;35.00
13707;DHT22;6925;47.816;13.072;2023-08-20T14:50:53;39.90;35.80
13707;DHT22;6925;47.816;13.072;2023-08-20T14:53:21;39.90;36.90
13707;DHT22;6925;47.816;13.072;2023-08-20T14:55:48;39.90;34.80
13707;DHT22;6925;47.816;13.072;2023-08-20T14:58:15;39.90;36.20
13707;DHT22;6925;47.816;13.072;2023-08-20T15:00:42;39.70;35.50
13707;DHT22;6925;47.816;13.072;2023-08-20T15:03:10;39.70;35.40
13707;DHT22;6925;47.816;13.072;2023-08-20T15:05:38;39.70;35.80
13707;DHT22;6925;47.816;13.072;2023-08-20T15:08:05;39.70;37.10
13707;DHT22;6925;47.816;13.072;2023-08-20T15:10:32;39.70;37.10
13707;DHT22;6925;47.816;13.072;2023-08-20T15:12:59;39.80;37.10
13707;DHT22;6925;47.816;13.072;2023-08-20T15:15:26;39.70;36.00
13707;DHT22;6925;47.816;13.072;2023-08-20T15:17:54;39.60;36.90
13707;DHT22;6925;47.816;13.072;2023-08-20T15:20:23;39.60;37.10
13707;DHT22;6925;47.816;13.072;2023-08-20T15:22:50;39.40;35.10
13707;DHT22;6925;47.816;13.072;2023-08-20T15:25:17;39.30;35.50
13707;DHT22;6925;47.816;13.072;2023-08-20T15:27:44;39.20;34.50
13707;DHT22;6925;47.816;13.072;2023-08-20T15:30:11;39.10;35.40
13707;DHT22;6925;47.816;13.072;2023-08-20T15:32:40;39.10;35.60
13707;DHT22;6925;47.816;13.072;2023-08-20T15:35:07;39.00;35.40